Time;durP1;ratioP1;P1;durP2;ratioP2;P2;SDS_P1;SDS_P2;PMS_P1;PMS_P2;Temp;Humidity;BMP_temperature;BMP_pressure;BME280_temperature;BME280_humidity;BME280_pressure;Samples;Min_cycle;Max_cycle;Signal;HPM_P1;HPM_P2
2022/09/06 00:00:41;;;;;;;2.10;0.80;;;;;;;31.46;17.24;98856.34;5081589;28;20021;-80
2022/09/06 00:03:07;;;;;;;0.75;0.50;;;;;;;31.52;17.10;98854.47;5076325;28;20393;-80
2022/09/06 00:05:34;;;;;;;1.08;0.60;;;;;;;31.61;16.96;98863.03;5077684;28;20050;-80
2022/09/06 00:08:02;;;;;;;0.60;0.43;;;;;;;31.52;17.67;98848.00;5077400;28;20025;-80
2022/09/06 00:10:30;;;;;;;0.85;0.77;;;;;;;30.54;18.25;98859.78;5080304;28;20089;-80
2022/09/06 00:13:03;;;;;;;1.02;0.63;;;;;;;29.74;19.41;98858.47;5081790;28;20476;-80
2022/09/06 00:15:30;;;;;;;0.70;0.52;;;;;;;30.03;19.13;98858.34;5076387;28;20487;-80
2022/09/06 00:18:00;;;;;;;0.68;0.55;;;;;;;30.72;18.41;98856.31;5076994;28;20051;-80
2022/09/06 00:20:28;;;;;;;1.52;0.65;;;;;;;31.06;17.84;98846.97;5075249;28;20044;-80
2022/09/06 00:22:59;;;;;;;1.13;0.50;;;;;;;31.33;17.87;98850.75;5077401;28;20388;-80
2022/09/06 00:25:26;;;;;;;0.93;0.68;;;;;;;31.47;18.15;98854.28;5076044;28;20127;-80
2022/09/06 00:27:54;;;;;;;1.15;0.88;;;;;;;30.83;18.22;98847.41;5079898;28;20024;-80
2022/09/06 00:30:21;;;;;;;1.77;0.80;;;;;;;30.43;18.93;98852.94;5077412;28;20059;-80
2022/09/06 00:32:47;;;;;;;1.92;0.57;;;;;;;30.72;18.52;98842.94;5081762;28;20028;-80
2022/09/06 00:35:13;;;;;;;3.17;0.60;;;;;;;30.51;18.58;98849.38;5077785;28;20032;-80
2022/09/06 00:37:39;;;;;;;1.35;0.60;;;;;;;30.53;18.53;98852.53;5075168;28;20049;-79
2022/09/06 00:40:06;;;;;;;2.45;0.60;;;;;;;30.41;18.82;98853.38;5077748;28;20029;-79
2022/09/06 00:42:32;;;;;;;1.33;0.80;;;;;;;30.55;18.65;98857.75;5079207;28;20158;-80
2022/09/06 00:44:59;;;;;;;1.35;0.60;;;;;;;30.88;18.55;98847.63;5074375;28;20029;-80
2022/09/06 00:47:26;;;;;;;3.95;1.02;;;;;;;30.83;18.49;98844.59;5076637;28;20044;-80
2022/09/06 00:49:58;;;;;;;1.65;0.52;;;;;;;30.31;18.92;98846.03;5076957;28;20107;-80
2022/09/06 00:52:26;;;;;;;0.77;0.50;;;;;;;30.28;19.07;98846.94;5074446;28;20032;-79
2022/09/06 00:54:53;;;;;;;0.80;0.60;;;;;;;29.92;19.40;98849.41;5078220;28;20024;-80
2022/09/06 00:57:20;;;;;;;0.98;0.70;;;;;;;29.90;19.51;98852.69;5073578;28;20035;-80
2022/09/06 00:59:49;;;;;;;1.15;0.70;;;;;;;29.79;19.63;98849.44;5074556;28;20045;-80
2022/09/06 01:02:15;;;;;;;1.60;0.60;;;;;;;29.97;19.07;98855.28;5076121;28;20077;-80
2022/09/06 01:04:43;;;;;;;4.28;0.60;;;;;;;30.39;18.71;98852.25;5076683;28;20518;-80
2022/09/06 01:07:23;;;;;;;1.45;0.70;;;;;;;29.93;19.53;98846.13;5076577;28;20053;-80
2022/09/06 01:10:18;;;;;;;1.58;0.50;;;;;;;30.24;19.09;98851.94;5076975;28;20102;-79
2022/09/06 01:12:50;;;;;;;1.17;0.80;;;;;;;30.51;19.05;98860.72;5073353;28;20097;-80
2022/09/06 01:15:33;;;;;;;1.02;0.60;;;;;;;30.19;19.64;98860.22;5077440;28;20131;-80
2022/09/06 01:18:45;;;;;;;0.60;0.50;;;;;;;30.13;20.01;98857.16;5079652;28;20475;-80
2022/09/06 01:21:30;;;;;;;1.20;0.80;;;;;;;30.19;19.70;98855.34;5071268;28;20098;-80
2022/09/06 01:24:17;;;;;;;1.08;0.80;;;;;;;30.33;19.74;98859.75;5079710;28;20047;-80
2022/09/06 01:27:13;;;;;;;1.25;0.70;;;;;;;30.63;19.34;98867.56;5077331;28;20086;-80
2022/09/06 01:30:04;;;;;;;1.13;0.77;;;;;;;30.37;19.79;98858.38;5074424;28;20043;-80
2022/09/06 01:33:05;;;;;;;6.20;1.00;;;;;;;28.71;21.52;98852.31;5077058;28;20025;-80
2022/09/06 01:35:43;;;;;;;1.00;0.75;;;;;;;28.80;21.76;98846.00;5076401;28;20040;-80
2022/09/06 01:38:09;;;;;;;0.82;0.70;;;;;;;29.50;21.01;98847.94;5077512;28;20048;-79
2022/09/06 01:40:36;;;;;;;1.88;0.80;;;;;;;29.76;20.43;98833.34;5077179;28;20042;-80
2022/09/06 01:43:10;;;;;;;1.67;0.90;;;;;;;28.55;22.08;98834.59;5092099;28;20421;-80
2022/09/06 01:45:48;;;;;;;4.07;1.00;;;;;;;29.03;21.57;98845.72;5092481;28;20024;-80
2022/09/06 01:48:33;;;;;;;2.90;0.80;;;;;;;29.69;20.26;98847.69;5087958;28;20036;-80
2022/09/06 01:51:35;;;;;;;2.47;1.10;;;;;;;30.29;19.96;98847.72;5085298;28;20048;-79
2022/09/06 01:54:27;;;;;;;1.92;0.80;;;;;;;30.71;19.37;98849.06;5087577;28;20039;-80
2022/09/06 01:57:16;;;;;;;1.10;0.70;;;;;;;30.19;20.24;98851.72;5084739;28;20035;-80
2022/09/06 02:00:00;;;;;;;1.33;0.70;;;;;;;29.78;20.63;98844.22;5093043;28;20053;-80
2022/09/06 02:02:36;;;;;;;1.10;0.93;;;;;;;29.88;20.87;98843.06;5091661;28;20394;-79
2022/09/06 02:05:12;;;;;;;0.82;0.73;;;;;;;30.13;20.22;98842.22;5089722;28;20459;-79
2022/09/06 02:07:41;;;;;;;0.60;0.60;;;;;;;30.46;19.61;98841.44;5094190;28;20062;-80
2022/09/06 02:10:22;;;;;;;2.42;1.13;;;;;;;30.49;19.92;98842.56;5092893;28;20107;-80
2022/09/06 02:12:54;;;;;;;1.60;0.82;;;;;;;30.47;19.59;98840.22;5082658;28;20028;-80
2022/09/06 02:15:50;;;;;;;0.80;0.65;;;;;;;30.26;19.81;98849.44;5081086;28;20082;-80
2022/09/06 02:18:27;;;;;;;1.65;0.70;;;;;;;30.44;19.60;98843.16;5078769;28;20123;-80
2022/09/06 02:20:57;;;;;;;1.45;0.65;;;;;;;30.33;20.02;98842.75;5082854;28;20111;-80
2022/09/06 02:23:27;;;;;;;2.57;1.00;;;;;;;29.64;20.33;98836.94;5078682;28;20962;-80
2022/09/06 02:26:03;;;;;;;1.88;0.90;;;;;;;29.04;21.27;98826.72;5084472;28;20697;-80
2022/09/06 02:28:30;;;;;;;2.40;0.88;;;;;;;29.11;21.36;98829.31;5080202;28;20047;-79
2022/09/06 02:31:04;;;;;;;1.63;1.00;;;;;;;29.56;20.62;98826.31;5087220;28;20031;-79
2022/09/06 02:33:32;;;;;;;2.38;0.73;;;;;;;29.89;19.78;98827.66;5081890;28;20047;-79
2022/09/06 02:36:05;;;;;;;0.70;0.52;;;;;;;29.96;19.96;98831.06;5083037;28;20035;-79
2022/09/06 02:38:33;;;;;;;2.67;0.80;;;;;;;29.43;20.70;98818.63;5082323;28;20040;-80
2022/09/06 02:41:00;;;;;;;1.45;0.90;;;;;;;29.02;20.94;98818.69;5078891;28;20060;-80
2022/09/06 02:43:26;;;;;;;2.63;1.33;;;;;;;28.78;21.60;98820.22;5081046;28;20040;-79
2022/09/06 02:45:52;;;;;;;1.48;0.82;;;;;;;28.91;21.22;98823.06;5081028;28;20031;-79
2022/09/06 02:48:18;;;;;;;1.48;0.80;;;;;;;29.10;20.77;98820.03;5081030;28;20119;-79
2022/09/06 02:50:44;;;;;;;1.95;0.90;;;;;;;29.47;20.40;98821.34;5085427;28;20048;-80
2022/09/06 02:53:12;;;;;;;1.85;0.70;;;;;;;29.71;20.17;98830.28;5081863;28;20036;-79
2022/09/06 02:55:39;;;;;;;2.17;0.85;;;;;;;29.66;20.21;98825.97;5078455;28;20044;-79
2022/09/06 02:58:08;;;;;;;1.08;0.82;;;;;;;29.71;20.17;98831.03;5075818;28;20028;-79
2022/09/06 03:00:34;;;;;;;1.38;0.80;;;;;;;29.88;20.02;98817.56;5084089;28;20061;-79
2022/09/06 03:03:00;;;;;;;1.02;0.70;;;;;;;29.77;20.10;98817.16;5079324;28;20051;-79
2022/09/06 03:05:27;;;;;;;2.55;1.10;;;;;;;29.56;20.35;98815.00;5085630;28;20063;-79
2022/09/06 03:07:54;;;;;;;1.40;0.68;;;;;;;29.24;20.75;98819.63;5091635;28;20035;-80
2022/09/06 03:10:21;;;;;;;3.10;0.90;;;;;;;29.14;20.74;98815.09;5082891;28;20071;-79
2022/09/06 03:12:47;;;;;;;3.78;0.90;;;;;;;28.91;21.15;98809.75;5082316;28;20105;-79
2022/09/06 03:15:15;;;;;;;1.20;0.82;;;;;;;28.85;21.19;98807.91;5082039;28;20040;-79
2022/09/06 03:17:41;;;;;;;2.30;0.77;;;;;;;29.23;21.06;98805.94;5078961;28;20032;-79
2022/09/06 03:20:09;;;;;;;2.08;0.73;;;;;;;29.53;20.69;98810.22;5078704;28;20039;-80
2022/09/06 03:22:38;;;;;;;5.03;1.00;;;;;;;29.47;20.66;98812.84;5082463;28;20047;-79
2022/09/06 03:25:05;;;;;;;1.30;0.80;;;;;;;28.83;21.49;98808.34;5082226;28;20028;-79
2022/09/06 03:27:31;;;;;;;1.63;0.70;;;;;;;29.04;21.05;98809.75;5079723;28;20028;-79
2022/09/06 03:29:57;;;;;;;1.23;0.80;;;;;;;28.95;21.22;98813.25;5079826;28;20079;-79
2022/09/06 03:32:23;;;;;;;0.80;0.60;;;;;;;28.72;21.21;98811.50;5080852;28;20422;-79
2022/09/06 03:34:49;;;;;;;0.77;0.65;;;;;;;28.78;21.28;98816.63;5077696;28;20032;-79
2022/09/06 03:37:16;;;;;;;3.72;0.82;;;;;;;28.46;21.42;98809.00;5076514;28;20024;-79
2022/09/06 03:39:42;;;;;;;0.80;0.70;;;;;;;27.83;22.19;98805.84;5079082;28;20056;-79
2022/09/06 03:42:08;;;;;;;1.60;0.80;;;;;;;27.99;22.21;98806.66;5086451;28;20140;-79
2022/09/06 03:44:34;;;;;;;1.40;0.77;;;;;;;27.88;22.36;98814.59;5076486;28;20040;-79
2022/09/06 03:47:01;;;;;;;1.52;0.80;;;;;;;28.20;22.14;98816.59;5077372;28;20387;-80
2022/09/06 03:49:27;;;;;;;1.67;0.60;;;;;;;28.64;21.82;98809.31;5080020;28;20114;-80
2022/09/06 03:51:53;;;;;;;1.73;0.80;;;;;;;28.60;21.12;98811.47;5079970;28;20028;-79
2022/09/06 03:54:19;;;;;;;1.80;0.80;;;;;;;28.98;21.14;98811.56;5078278;28;20047;-79
2022/09/06 03:56:45;;;;;;;3.05;1.08;;;;;;;29.11;20.79;98815.19;5080960;28;20495;-79
2022/09/06 03:59:11;;;;;;;1.58;0.70;;;;;;;29.20;20.92;98815.31;5081397;28;20032;-79
2022/09/06 04:01:37;;;;;;;1.05;0.75;;;;;;;29.20;21.20;98804.00;5074722;28;20033;-79
2022/09/06 04:04:03;;;;;;;1.33;0.73;;;;;;;29.33;20.42;98805.63;5080688;28;20032;-79
2022/09/06 04:06:30;;;;;;;0.82;0.50;;;;;;;29.33;20.42;98805.63;5074514;28;20119;-79
2022/09/06 04:08:56;;;;;;;1.05;0.82;;;;;;;29.39;20.55;98803.00;5086765;28;20036;-79
2022/09/06 04:11:22;;;;;;;0.65;0.60;;;;;;;29.57;20.25;98808.09;5077318;28;20064;-79
2022/09/06 04:13:48;;;;;;;2.42;0.80;;;;;;;29.63;20.20;98809.09;5081071;28;20106;-79
2022/09/06 04:16:16;;;;;;;1.25;0.75;;;;;;;29.64;20.08;98802.97;5081905;28;20024;-81
2022/09/06 04:18:42;;;;;;;0.77;0.70;;;;;;;29.82;20.03;98810.91;5082576;28;20430;-81
2022/09/06 04:21:08;;;;;;;1.75;1.00;;;;;;;29.48;20.55;98805.94;5084522;28;20040;-82
2022/09/06 04:23:34;;;;;;;1.73;1.00;;;;;;;29.12;20.79;98799.81;5085389;28;20024;-83
2022/09/06 04:26:00;;;;;;;2.05;0.90;;;;;;;28.14;21.69;98795.78;5088063;28;20036;-81
2022/09/06 04:28:27;;;;;;;0.90;0.80;;;;;;;27.71;22.34;98807.34;5088820;28;20077;-81
2022/09/06 04:30:54;;;;;;;2.00;0.70;;;;;;;27.07;23.51;98807.28;5086714;28;20404;-81
2022/09/06 04:33:24;;;;;;;1.98;1.02;;;;;;;27.39;23.19;98798.91;5088809;28;20039;-81
2022/09/06 04:35:55;;;;;;;2.33;0.90;;;;;;;28.37;21.96;98804.00;5086377;28;20060;-81
2022/09/06 04:38:23;;;;;;;2.08;1.67;;;;;;;29.01;21.20;98805.78;5084961;28;20471;-80
2022/09/06 04:40:49;;;;;;;2.10;1.55;;;;;;;29.47;20.82;98809.22;5082297;28;20134;-81
2022/09/06 04:43:16;;;;;;;2.70;1.40;;;;;;;29.71;20.31;98808.41;5082866;28;20040;-80
2022/09/06 04:45:43;;;;;;;1.95;1.50;;;;;;;30.14;19.93;98809.81;5086982;28;20032;-81
2022/09/06 04:48:10;;;;;;;1.95;1.30;;;;;;;30.03;19.98;98810.19;5092070;28;20032;-81
2022/09/06 04:50:37;;;;;;;1.50;1.05;;;;;;;28.49;22.07;98808.94;5093466;28;20054;-81
2022/09/06 04:53:04;;;;;;;1.95;1.13;;;;;;;28.11;22.53;98809.97;5091648;28;20036;-81
2022/09/06 04:55:30;;;;;;;1.27;1.00;;;;;;;27.79;23.00;98820.06;5092312;28;20047;-81
2022/09/06 04:57:58;;;;;;;1.63;1.13;;;;;;;28.31;22.42;98810.66;5093591;28;20419;-81
2022/09/06 05:00:26;;;;;;;2.33;0.80;;;;;;;28.54;22.26;98807.59;5093290;28;20055;-81
2022/09/06 05:02:52;;;;;;;2.60;1.20;;;;;;;28.58;22.36;98803.41;5093465;28;20036;-81
2022/09/06 05:05:18;;;;;;;2.20;1.30;;;;;;;28.95;21.88;98806.78;5091749;28;20040;-81
2022/09/06 05:07:44;;;;;;;1.25;0.93;;;;;;;28.53;22.25;98803.97;5093936;28;20028;-81
2022/09/06 05:10:10;;;;;;;1.50;0.90;;;;;;;28.69;22.23;98808.78;5093528;28;20031;-81
2022/09/06 05:12:36;;;;;;;1.55;0.90;;;;;;;29.17;21.92;98813.38;5084254;28;20066;-81
2022/09/06 05:15:03;;;;;;;2.97;1.20;;;;;;;29.24;21.59;98802.66;5092199;28;20032;-80
2022/09/06 05:17:29;;;;;;;1.48;1.20;;;;;;;29.56;21.34;98815.78;5072619;28;20064;-81
2022/09/06 05:19:55;;;;;;;4.97;1.30;;;;;;;29.20;22.10;98813.28;5092177;28;20032;-81
2022/09/06 05:22:21;;;;;;;4.78;1.20;;;;;;;29.20;21.87;98812.50;5093500;28;20029;-81
2022/09/06 05:24:47;;;;;;;2.78;1.13;;;;;;;29.54;21.78;98817.50;5093451;28;20068;-81
2022/09/06 05:27:13;;;;;;;5.07;1.45;;;;;;;29.93;21.99;98814.16;5092708;28;20032;-81
2022/09/06 05:29:39;;;;;;;5.95;2.60;;;;;;;29.29;22.22;98818.31;5082334;28;20388;-81
2022/09/06 05:32:06;;;;;;;6.03;1.65;;;;;;;28.49;23.00;98813.78;5073154;28;20033;-81
2022/09/06 05:34:32;;;;;;;2.00;1.38;;;;;;;28.78;23.36;98820.22;5077129;28;20075;-81
2022/09/06 05:36:58;;;;;;;2.78;1.60;;;;;;;29.40;22.92;98824.41;5095779;28;20077;-81
2022/09/06 05:39:24;;;;;;;1.20;1.10;;;;;;;29.90;22.11;98832.06;5097453;28;20024;-81
2022/09/06 05:41:50;;;;;;;2.38;1.48;;;;;;;30.29;21.59;98825.88;5097074;28;20111;-81
2022/09/06 05:44:16;;;;;;;2.35;1.30;;;;;;;30.77;20.89;98828.16;5103847;28;20042;-81
2022/09/06 05:46:44;;;;;;;1.77;1.35;;;;;;;31.12;21.00;98822.41;5090389;28;20050;-81
2022/09/06 05:49:11;;;;;;;3.60;1.20;;;;;;;31.78;19.81;98824.59;5094513;28;20055;-82
2022/09/06 05:51:38;;;;;;;3.05;1.42;;;;;;;31.86;20.03;98825.88;5095786;28;20103;-81
2022/09/06 05:54:04;;;;;;;2.97;1.75;;;;;;;30.69;21.64;98832.50;5097108;28;20028;-81
2022/09/06 05:56:30;;;;;;;2.10;1.30;;;;;;;31.11;20.41;98835.78;5093554;28;20051;-81
2022/09/06 05:58:56;;;;;;;2.22;1.00;;;;;;;31.86;20.08;98825.88;5095675;28;20106;-81
2022/09/06 06:01:25;;;;;;;1.88;1.40;;;;;;;31.72;20.15;98831.34;5097205;28;20035;-81
2022/09/06 06:03:52;;;;;;;2.38;1.13;;;;;;;31.97;20.69;98831.91;5091721;28;20028;-81
2022/09/06 06:06:20;;;;;;;1.27;1.10;;;;;;;31.68;20.68;98831.50;5095613;28;20044;-81
2022/09/06 06:08:47;;;;;;;2.20;1.17;;;;;;;31.52;20.87;98822.47;5094203;28;20059;-81
2022/09/06 06:11:13;;;;;;;4.93;1.58;;;;;;;30.97;21.14;98830.66;5096461;28;20028;-82
2022/09/06 06:13:40;;;;;;;4.20;1.55;;;;;;;30.89;21.09;98826.53;5095649;28;20054;-81
2022/09/06 06:16:12;;;;;;;3.03;1.60;;;;;;;28.77;22.88;98832.78;5096690;28;20026;-81
2022/09/06 06:18:38;;;;;;;5.22;1.33;;;;;;;27.98;24.78;98832.50;5096658;28;20036;-81
2022/09/06 06:21:15;;;;;;;4.20;1.63;;;;;;;28.63;23.89;98824.72;5082402;28;20056;-82
2022/09/06 06:23:43;;;;;;;1.70;1.10;;;;;;;29.47;23.14;98829.03;5076308;28;20025;-81
2022/09/06 06:26:11;;;;;;;4.13;1.38;;;;;;;30.44;22.78;98824.13;5080874;28;20062;-81
2022/09/06 06:28:37;;;;;;;1.60;1.08;;;;;;;30.38;22.64;98816.66;5094144;28;20040;-81
2022/09/06 06:31:05;;;;;;;2.15;1.35;;;;;;;29.30;23.13;98825.53;5095759;28;20036;-81
2022/09/06 06:33:32;;;;;;;1.88;1.23;;;;;;;28.38;24.84;98818.94;5094424;28;20031;-81
2022/09/06 06:36:03;;;;;;;1.33;1.10;;;;;;;28.59;25.14;98818.38;5096303;28;20457;-82
2022/09/06 06:38:31;;;;;;;2.90;1.42;;;;;;;28.88;24.95;98816.28;5079189;28;20063;-81
2022/09/06 06:40:58;;;;;;;2.03;1.13;;;;;;;29.79;22.66;98818.28;5095296;28;20043;-82
2022/09/06 06:43:24;;;;;;;1.52;1.10;;;;;;;29.89;22.96;98813.50;5095736;28;20036;-81
2022/09/06 06:45:50;;;;;;;1.45;1.08;;;;;;;30.04;22.57;98817.41;5090868;28;20024;-82
2022/09/06 06:48:16;;;;;;;2.42;1.30;;;;;;;30.16;22.25;98825.09;5088016;28;20040;-82
2022/09/06 06:50:42;;;;;;;2.05;1.35;;;;;;;29.49;22.65;98833.00;5095983;28;20109;-82
2022/09/06 06:53:08;;;;;;;1.23;1.00;;;;;;;30.03;22.46;98821.53;5094583;28;20113;-82
2022/09/06 06:55:34;;;;;;;3.35;1.27;;;;;;;30.86;21.58;98818.13;5077759;28;20450;-82
2022/09/06 06:58:01;;;;;;;1.15;1.00;;;;;;;30.63;21.65;98828.69;5075692;28;20051;-82
2022/09/06 07:00:27;;;;;;;1.80;1.23;;;;;;;30.37;21.91;98830.03;5082731;28;20029;-81
2022/09/06 07:02:54;;;;;;;2.85;1.30;;;;;;;30.99;21.94;98822.50;5094662;28;20036;-82
2022/09/06 07:05:21;;;;;;;2.92;1.23;;;;;;;30.52;22.17;98836.00;5095146;28;20031;-81
2022/09/06 07:07:47;;;;;;;1.42;1.20;;;;;;;30.13;23.24;98833.72;5095925;28;20143;-82
2022/09/06 07:10:14;;;;;;;1.60;1.02;;;;;;;31.13;22.29;98827.63;5095500;28;20036;-82
2022/09/06 07:12:40;;;;;;;2.90;1.40;;;;;;;29.28;24.50;98834.47;5077274;28;20052;-82
2022/09/06 07:15:07;;;;;;;5.28;1.30;;;;;;;30.33;24.09;98840.72;5075483;28;20119;-81
2022/09/06 07:17:34;;;;;;;2.05;1.20;;;;;;;31.39;21.78;98833.91;5083316;28;20036;-82
2022/09/06 07:20:00;;;;;;;4.18;1.40;;;;;;;31.83;21.71;98829.69;5094984;28;20060;-82
2022/09/06 07:22:26;;;;;;;2.42;1.42;;;;;;;30.57;23.06;98830.50;5094222;28;20495;-82
2022/09/06 07:24:52;;;;;;;6.97;2.30;;;;;;;30.21;23.89;98824.53;5095044;28;20054;-82
2022/09/06 07:27:18;;;;;;;3.58;1.55;;;;;;;30.66;23.44;98827.78;5095418;28;20499;-82
2022/09/06 07:29:44;;;;;;;3.35;1.75;;;;;;;30.55;23.31;98833.03;5075762;28;20025;-82
2022/09/06 07:32:11;;;;;;;6.10;1.70;;;;;;;30.34;23.91;98839.44;5081761;28;20036;-82
2022/09/06 07:34:38;;;;;;;5.38;1.83;;;;;;;29.73;23.91;98836.28;5094976;28;20122;-82
2022/09/06 07:37:04;;;;;;;6.20;1.90;;;;;;;28.79;25.80;98833.13;5095465;28;20028;-82
2022/09/06 07:39:31;;;;;;;2.75;1.63;;;;;;;29.83;24.94;98835.94;5076044;28;20029;-82
2022/09/06 07:41:58;;;;;;;4.88;2.05;;;;;;;28.45;26.47;98838.50;5073320;28;20123;-82
2022/09/06 07:44:25;;;;;;;2.45;1.70;;;;;;;27.72;26.63;98842.81;5089293;28;20493;-82
2022/09/06 07:46:51;;;;;;;2.90;1.85;;;;;;;28.14;26.99;98843.00;5093540;28;20024;-82
2022/09/06 07:49:17;;;;;;;2.70;1.67;;;;;;;27.32;27.30;98852.59;5094683;28;20036;-82
2022/09/06 07:51:43;;;;;;;4.53;2.33;;;;;;;26.98;27.75;98843.72;5094794;28;20035;-82
2022/09/06 07:54:09;;;;;;;2.28;1.70;;;;;;;26.91;28.33;98839.00;5094599;28;20032;-82
2022/09/06 07:56:36;;;;;;;4.03;2.03;;;;;;;26.53;27.61;98837.78;5094343;28;20085;-82
2022/09/06 07:59:02;;;;;;;5.13;2.45;;;;;;;26.61;27.92;98845.66;5094943;28;20063;-82
2022/09/06 08:01:36;;;;;;;7.18;2.25;;;;;;;26.74;27.49;98846.59;5093527;28;20553;-82
2022/09/06 08:04:05;;;;;;;3.63;2.15;;;;;;;27.35;27.73;98835.59;5094421;28;20024;-82
2022/09/06 08:06:33;;;;;;;4.25;2.65;;;;;;;27.26;27.07;98828.97;5094516;28;20035;-82
2022/09/06 08:09:00;;;;;;;4.38;2.28;;;;;;;27.58;26.90;98839.53;5094499;28;20048;-82
2022/09/06 08:11:28;;;;;;;4.00;2.63;;;;;;;28.79;25.40;98824.63;5094445;28;20039;-82
2022/09/06 08:13:56;;;;;;;3.92;2.08;;;;;;;28.93;26.14;98820.59;5094320;28;20118;-83
2022/09/06 08:16:24;;;;;;;2.40;1.80;;;;;;;29.71;24.56;98824.63;5093324;28;20115;-82
2022/09/06 08:18:52;;;;;;;3.35;2.28;;;;;;;30.15;23.90;98822.72;5090499;28;20429;-82
2022/09/06 08:21:22;;;;;;;4.10;1.67;;;;;;;30.17;24.03;98821.03;5074105;28;20115;-82
2022/09/06 08:23:50;;;;;;;2.78;1.98;;;;;;;29.59;24.10;98814.91;5074079;28;20024;-82
2022/09/06 08:26:19;;;;;;;2.88;2.13;;;;;;;30.39;23.87;98829.56;5087998;28;20111;-82
2022/09/06 08:28:46;;;;;;;3.08;1.77;;;;;;;28.81;25.18;98822.16;5094450;28;20036;-82
2022/09/06 08:31:14;;;;;;;3.72;1.98;;;;;;;28.86;24.77;98821.59;5092838;28;20023;-82
2022/09/06 08:33:41;;;;;;;3.95;1.67;;;;;;;29.56;24.17;98817.81;5093912;28;20032;-82
2022/09/06 08:36:09;;;;;;;3.47;1.80;;;;;;;28.32;25.42;98820.69;5092393;28;20169;-82
2022/09/06 08:38:35;;;;;;;3.28;2.03;;;;;;;28.64;25.24;98823.44;5093830;28;20440;-82
2022/09/06 08:41:19;;;;;;;2.58;1.73;;;;;;;28.47;25.03;98819.09;5085359;28;20035;-82
2022/09/06 08:43:55;;;;;;;5.60;1.67;;;;;;;29.76;24.82;98818.38;5091904;28;20031;-82
2022/09/06 08:46:28;;;;;;;4.78;1.60;;;;;;;29.21;25.54;98814.09;5092582;28;20028;-82
2022/09/06 08:48:54;;;;;;;3.00;1.80;;;;;;;27.22;27.39;98814.97;5093331;28;20052;-82
2022/09/06 08:51:48;;;;;;;4.72;1.75;;;;;;;27.45;26.52;98818.88;5093029;28;20040;-81
2022/09/06 08:54:37;;;;;;;4.38;2.30;;;;;;;27.06;27.80;98823.38;5078773;28;20496;-82
2022/09/06 08:57:03;;;;;;;4.75;2.35;;;;;;;27.59;26.74;98827.81;5073634;28;20111;-82
2022/09/06 08:59:36;;;;;;;7.53;2.40;;;;;;;29.80;24.84;98822.69;5080985;28;20446;-82
2022/09/06 09:02:10;;;;;;;4.20;2.20;;;;;;;28.17;25.17;98816.69;5092993;28;20040;-81
2022/09/06 09:04:41;;;;;;;7.70;2.33;;;;;;;28.39;25.69;98817.69;5092932;28;20544;-82
2022/09/06 09:07:29;;;;;;;4.10;1.95;;;;;;;27.08;26.92;98811.66;5092710;28;20036;-81
2022/09/06 09:09:58;;;;;;;4.80;2.13;;;;;;;27.85;26.59;98811.84;5089149;28;20036;-82
2022/09/06 09:12:29;;;;;;;6.40;2.35;;;;;;;28.12;26.06;98814.41;5073465;28;20044;-82
2022/09/06 09:15:04;;;;;;;3.90;1.50;;;;;;;28.53;25.16;98809.59;5072572;28;20484;-82
2022/09/06 09:17:31;;;;;;;3.67;1.85;;;;;;;27.63;26.78;98803.16;5093135;28;20032;-82
2022/09/06 09:19:57;;;;;;;4.20;2.03;;;;;;;27.30;27.44;98801.50;5093275;28;20069;-82
2022/09/06 09:22:24;;;;;;;4.10;2.15;;;;;;;27.40;28.24;98806.91;5093187;28;20395;-82
2022/09/06 09:24:51;;;;;;;3.03;1.83;;;;;;;28.59;26.81;98796.53;5093383;28;20028;-82
2022/09/06 09:27:24;;;;;;;3.42;2.05;;;;;;;28.35;26.31;98791.56;5085761;28;20119;-82
2022/09/06 09:29:53;;;;;;;2.25;1.60;;;;;;;28.42;25.84;98794.19;5074143;28;20431;-82
2022/09/06 09:32:39;;;;;;;3.22;2.08;;;;;;;28.72;27.20;98799.41;5093315;28;20043;-82
2022/09/06 09:35:30;;;;;;;2.10;1.52;;;;;;;28.36;25.67;98779.81;5087792;28;20021;-82
2022/09/06 09:38:11;;;;;;;3.67;1.88;;;;;;;28.69;25.56;98789.00;5073239;28;20051;-83
2022/09/06 09:41:14;;;;;;;4.90;1.50;;;;;;;30.08;24.21;98786.97;5073057;28;20032;-82
2022/09/06 09:43:53;;;;;;;5.22;1.85;;;;;;;30.87;23.38;98780.00;5033396;28;20072;-82
2022/09/06 09:46:21;;;;;;;3.15;1.70;;;;;;;30.06;24.43;98770.41;5087181;28;20080;-82
2022/09/06 09:49:06;;;;;;;2.30;1.73;;;;;;;31.03;23.63;98774.13;5093022;28;20036;-82
2022/09/06 09:51:38;;;;;;;4.05;1.55;;;;;;;29.68;24.08;98768.91;5092654;28;20048;-82
2022/09/06 09:54:07;;;;;;;2.85;1.75;;;;;;;29.67;25.85;98773.78;5093157;28;20040;-82
2022/09/06 09:56:48;;;;;;;2.22;1.45;;;;;;;30.69;24.83;98772.19;5093572;28;20418;-82
2022/09/06 09:59:22;;;;;;;1.50;1.40;;;;;;;31.09;22.93;98767.38;5093658;28;20422;-82
2022/09/06 10:01:50;;;;;;;4.45;1.75;;;;;;;30.77;23.98;98765.78;5089600;28;20064;-82
2022/09/06 10:04:23;;;;;;;3.17;1.75;;;;;;;29.61;24.10;98769.16;5086095;28;20380;-82
2022/09/06 10:06:49;;;;;;;2.80;1.65;;;;;;;28.81;26.23;98764.81;5092766;28;20077;-82
2022/09/06 10:09:21;;;;;;;2.47;1.50;;;;;;;29.36;25.43;98764.28;5092828;28;20103;-83
2022/09/06 10:11:56;;;;;;;4.28;1.85;;;;;;;28.43;24.92;98756.22;5092291;28;20040;-82
2022/09/06 10:14:39;;;;;;;4.15;1.67;;;;;;;28.23;25.48;98750.75;5092750;28;20124;-83
2022/09/06 10:17:05;;;;;;;2.28;1.70;;;;;;;27.96;27.10;98745.41;5092833;28;20032;-82
2022/09/06 10:19:43;;;;;;;3.13;1.30;;;;;;;28.43;26.32;98739.28;5073884;28;20058;-83
2022/09/06 10:22:22;;;;;;;3.60;1.60;;;;;;;28.61;24.61;98736.75;5090312;28;20042;-83
2022/09/06 10:25:08;;;;;;;2.85;1.85;;;;;;;29.50;24.47;98738.34;5095181;28;20040;-82
2022/09/06 10:27:35;;;;;;;3.17;1.60;;;;;;;30.94;22.88;98723.03;5095824;28;20035;-82
2022/09/06 10:30:07;;;;;;;1.83;1.40;;;;;;;30.20;22.83;98726.59;5096642;28;20032;-83
2022/09/06 10:33:03;;;;;;;3.25;1.50;;;;;;;29.76;22.03;98728.59;5096062;28;20050;-82
2022/09/06 10:35:34;;;;;;;4.10;1.30;;;;;;;29.82;23.22;98728.81;5086891;28;20392;-82
2022/09/06 10:38:03;;;;;;;3.95;1.30;;;;;;;29.24;23.58;98729.09;5090293;28;20024;-82
2022/09/06 10:40:52;;;;;;;3.65;1.27;;;;;;;29.53;23.58;98728.16;5095372;28;20044;-82
2022/09/06 10:43:19;;;;;;;1.17;1.00;;;;;;;29.79;22.36;98727.69;5071714;28;20061;-82
2022/09/06 10:45:48;;;;;;;1.50;1.00;;;;;;;30.56;22.89;98726.91;5076151;28;20115;-82
2022/09/06 10:48:31;;;;;;;4.38;1.50;;;;;;;30.04;22.46;98723.97;5075893;28;20036;-81
2022/09/06 10:51:22;;;;;;;2.45;1.30;;;;;;;28.97;22.77;98725.13;5074326;28;20400;-81
2022/09/06 10:53:54;;;;;;;3.63;2.13;;;;;;;29.68;23.37;98718.75;5074990;28;20403;-82
2022/09/06 10:56:31;;;;;;;1.90;1.30;;;;;;;29.20;22.73;98728.44;5107247;28;20031;-81
2022/09/06 10:59:02;;;;;;;4.60;1.50;;;;;;;29.10;24.12;98729.53;5087223;28;20035;-82
2022/09/06 11:01:42;;;;;;;1.50;1.10;;;;;;;30.13;22.38;98738.19;5095865;28;20063;-81
2022/09/06 11:04:19;;;;;;;3.55;1.30;;;;;;;29.71;22.14;98734.03;5096575;28;20035;-82
2022/09/06 11:06:52;;;;;;;4.18;1.42;;;;;;;30.01;22.63;98727.72;5096122;28;20032;-82
2022/09/06 11:09:24;;;;;;;1.20;1.08;;;;;;;30.04;22.66;98729.63;5087568;28;20385;-82
2022/09/06 11:12:26;;;;;;;1.30;1.00;;;;;;;30.66;21.73;98717.22;5075555;28;20050;-82
2022/09/06 11:14:52;;;;;;;1.55;1.08;;;;;;;31.58;20.73;98719.16;5077526;28;20033;-82
2022/09/06 11:18:07;;;;;;;1.40;1.00;;;;;;;31.02;22.59;98710.94;5075727;28;20028;-81
2022/09/06 11:20:48;;;;;;;1.33;1.13;;;;;;;30.79;22.79;98708.59;5016463;28;20083;-81
2022/09/06 11:23:35;;;;;;;2.55;1.10;;;;;;;31.01;21.67;98700.84;5086054;28;20040;-81
2022/09/06 11:26:40;;;;;;;1.70;1.00;;;;;;;31.03;21.16;98706.06;5094233;28;20024;-81
2022/09/06 11:29:08;;;;;;;2.08;1.25;;;;;;;29.88;22.84;98709.97;5095544;28;20059;-81
2022/09/06 11:31:54;;;;;;;4.95;1.45;;;;;;;29.94;21.99;98702.50;5094293;28;20085;-81
2022/09/06 11:34:20;;;;;;;4.40;1.10;;;;;;;31.64;20.92;98691.75;5088506;28;20040;-81
2022/09/06 11:37:07;;;;;;;2.45;1.20;;;;;;;31.60;20.97;98691.09;5095152;28;20462;-81
2022/09/06 11:39:37;;;;;;;1.70;1.08;;;;;;;32.42;22.29;98689.03;5095296;28;20025;-82
2022/09/06 11:42:08;;;;;;;1.83;1.00;;;;;;;31.96;21.04;98694.00;5094847;28;20051;-81
2022/09/06 11:45:15;;;;;;;2.08;1.45;;;;;;;30.87;21.00;98683.59;5076773;28;20086;-81
2022/09/06 11:47:46;;;;;;;1.38;1.20;;;;;;;31.22;22.11;98685.00;5078540;28;20074;-81
2022/09/06 11:50:23;;;;;;;2.95;1.73;;;;;;;31.68;20.31;98688.75;5093464;28;20042;-81
2022/09/06 11:53:04;;;;;;;2.78;1.50;;;;;;;31.37;20.76;98686.75;5094748;28;20077;-81